Milouin — FT9009 — position and weather

sailwx.info

Track history (hours):
 
Tides and Currents Weather Stations Pressure Air Temp Water Temp Dewpoint Dewpoint Depression Visibility Wind Speed Wind Dir Waves Ship Positions

Milouin

Last reported at 2016-May-06 12:33 UTC. Time now 2016-May-06 13:01 UTC.
Position N 47°17' W 002°01'.

Length 36 m; draft 2.5 m.

Type: Ship. MMSI: 227003190.

Date/timePositionNaut miles runAvg speedWind from/ knotsBaromVisibWave heightAir tempDewpointWater temp
2016-May-06 12:33N 47°17' W 002°01'0 0.0
2016-May-06 11:33N 47°17' W 002°01'0 0.0
2016-May-06 10:16N 47°17' W 002°01'3 4.6
2016-May-06 09:33N 47°18' W 002°06'1 0.9
2016-May-06 08:33N 47°18' W 002°07'0 0.1
2016-May-06 07:33N 47°18' W 002°07'0 0.1
2016-May-06 06:33N 47°18' W 002°08'0 0.1
2016-May-06 05:33N 47°18' W 002°08'4 3.9
2016-May-06 04:24N 47°17' W 002°01'0 0.0
2016-May-06 02:32N 47°17' W 002°01'0 0.0
2016-May-06 01:33N 47°17' W 002°01'0 0.0
2016-May-06 00:33N 47°17' W 002°01'0 0.0
2016-May-05 23:32N 47°17' W 002°01'0 0.0
2016-May-05 22:33N 47°17' W 002°01'0 0.0
2016-May-05 20:27N 47°17' W 002°01'0 0.0
2016-May-05 11:33N 47°17' W 002°01'0 0.0
2016-May-05 10:33N 47°17' W 002°01'0 0.0
2016-May-05 09:31N 47°17' W 002°01'0 0.0
2016-May-05 08:14N 47°17' W 002°01'0 0.0
2016-May-05 07:26N 47°17' W 002°01'0 0.0
2016-May-05 06:28N 47°17' W 002°01'0 0.0
2016-May-05 03:25N 47°17' W 002°01'0 0.0
2016-May-05 00:33N 47°17' W 002°01'0 0.0
2016-May-04 23:33N 47°17' W 002°01'0 0.0
2016-May-04 22:33N 47°17' W 002°01'0 0.0
2016-May-04 21:30N 47°17' W 002°01'0 0.1
2016-May-04 14:33N 47°18' W 002°01'0 0.1
2016-May-04 11:21N 47°17' W 002°01'0 0.0
2016-May-04 10:20N 47°17' W 002°01'3 4.0
2016-May-04 09:30N 47°18' W 002°06'0 0.5
2016-May-04 08:33N 47°18' W 002°07'4 3.8
2016-May-04 07:33N 47°18' W 002°01'0 0.2
2016-May-04 06:33N 47°18' W 002°01'0 0.3
2016-May-04 05:32N 47°18' W 002°01'0 0.0
2016-May-03 23:33N 47°17' W 002°01'0 0.0
2016-May-03 22:32N 47°17' W 002°01'0 0.0
2016-May-03 21:32N 47°17' W 002°01'0 0.0
2016-May-03 20:33N 47°17' W 002°01'0 0.0
2016-May-03 19:17N 47°17' W 002°01'0 0.0
2016-May-03 18:20N 47°17' W 002°01'0 0.0
2016-May-03 16:14N 47°17' W 002°01'0 0.5
2016-May-03 15:33N 47°18' W 002°01'1 0.5
2016-May-03 14:31N 47°18' W 002°02'1 0.6
2016-May-03 13:24N 47°18' W 002°01'0 0.2
2016-May-03 11:27N 47°17' W 002°01'0 0.0
2016-May-03 10:32N 47°17' W 002°01'0 0.0
2016-May-03 07:32N 47°17' W 002°01'0 0.3
2016-May-03 06:33N 47°18' W 002°01'0 0.3
2016-May-03 05:33N 47°17' W 002°01'0 0.0
2016-May-03 04:33N 47°17' W 002°01'0 0.0
2016-May-03 03:33N 47°17' W 002°01'0 0.0
2016-May-03 02:33N 47°17' W 002°01'0 0.0
2016-May-03 01:33N 47°17' W 002°01'0 0.0
2016-May-03 00:33N 47°17' W 002°01'0 0.0
2016-May-02 23:33N 47°17' W 002°01'0 0.0
2016-May-02 22:33N 47°17' W 002°01'0 0.0
2016-May-02 21:33N 47°17' W 002°01'0 0.0
2016-May-02 20:33N 47°17' W 002°01'0 0.0
2016-May-02 19:33N 47°17' W 002°01'0 0.0
2016-May-02 18:33N 47°17' W 002°01'0 0.0
2016-May-02 17:33N 47°17' W 002°01'0 0.0
2016-May-02 16:33N 47°17' W 002°01'0 0.0
2016-May-02 15:33N 47°17' W 002°01'0 0.4
2016-May-02 14:33N 47°18' W 002°01'0 0.0
2016-May-02 13:33N 47°17' W 002°01'0 0.0
2016-May-02 12:32N 47°18' W 002°01'2 2.0
2016-May-02 11:33N 47°17' W 001°58'7 6.5
2016-May-02 10:33N 47°14' W 001°50'3 2.9
2016-May-02 09:33N 47°12' W 001°46'0 0.0
2016-May-02 08:33N 47°12' W 001°46'0 0.0
2016-May-02 07:33N 47°12' W 001°46'0 0.1
2016-May-02 06:33N 47°12' W 001°46'0 0.1
2016-May-02 05:33N 47°12' W 001°46'0 0.0
2016-May-01 07:31N 47°12' W 001°46'0 0.0
2016-May-01 06:10N 47°12' W 001°46'0 0.0
2016-May-01 05:30N 47°12' W 001°46'0 0.0
2016-May-01 03:32N 47°12' W 001°46'0 0.0
2016-May-01 02:27N 47°12' W 001°46'0 0.0
2016-May-01 01:33N 47°12' W 001°46'0 0.0
2016-May-01 00:33N 47°12' W 001°46'0 0.0
2016-Apr-30 23:33N 47°12' W 001°46'0 0.0
2016-Apr-30 22:33N 47°12' W 001°46'0 0.0
2016-Apr-30 21:33N 47°12' W 001°46'0 0.0
2016-Apr-30 20:33N 47°12' W 001°46'0 0.0
2016-Apr-30 19:33N 47°12' W 001°46'0 0.0
2016-Apr-30 18:33N 47°12' W 001°46'0 0.0
2016-Apr-30 17:33N 47°12' W 001°46'0 0.0
2016-Apr-30 16:33N 47°12' W 001°46'0 0.0
2016-Apr-30 15:33N 47°12' W 001°46'0 0.0
2016-Apr-30 14:33N 47°12' W 001°46'2 2.3
2016-Apr-30 13:33N 47°13' W 001°49'2 1.9
2016-Apr-30 12:33N 47°15' W 001°51'0 0.1
2016-Apr-30 11:33N 47°15' W 001°51'0 0.0
2016-Apr-30 10:33N 47°15' W 001°51'1 0.7
2016-Apr-30 09:33N 47°14' W 001°50'4 3.5
2016-Apr-30 08:33N 47°12' W 001°46'0 0.0
2016-Apr-30 07:33N 47°12' W 001°46'0 0.0
2016-Apr-30 06:33N 47°12' W 001°46'0 0.0
2016-Apr-30 05:33N 47°12' W 001°46'0 0.0
2016-Apr-30 04:33N 47°12' W 001°46'0 0.0
2016-Apr-30 03:33N 47°12' W 001°46'0 0.0
2016-Apr-30 02:33N 47°12' W 001°46'0 0.0
2016-Apr-30 01:33N 47°12' W 001°46'0 0.0
2016-Apr-30 00:33N 47°12' W 001°46'0 0.0
2016-Apr-29 23:33N 47°12' W 001°46'0 0.0
2016-Apr-29 22:33N 47°12' W 001°46'0 0.0
2016-Apr-29 21:33N 47°12' W 001°46'0 0.0
2016-Apr-29 20:33N 47°12' W 001°46'0 0.0
2016-Apr-29 19:33N 47°12' W 001°46'0 0.0
2016-Apr-29 18:33N 47°12' W 001°46'0 0.0
2016-Apr-29 17:33N 47°12' W 001°46'0 0.0
2016-Apr-29 16:33N 47°12' W 001°46'3 3.0
2016-Apr-29 15:33N 47°14' W 001°50'1 1.2
2016-Apr-29 14:33N 47°15' W 001°51'1 0.6
2016-Apr-29 13:33N 47°14' W 001°50'1 0.5
2016-Apr-29 12:33N 47°15' W 001°51'0 0.0
2016-Apr-29 11:33N 47°15' W 001°51'0 0.0
2016-Apr-29 10:33N 47°15' W 001°51'0 0.1
2016-Apr-29 09:33N 47°15' W 001°51'1 0.5
2016-Apr-29 08:33N 47°14' W 001°50'0 0.2
2016-Apr-29 07:33N 47°14' W 001°50'3 3.3
2016-Apr-29 06:33N 47°12' W 001°46'0 0.0
2016-Apr-29 05:33N 47°12' W 001°46'0 0.0
2016-Apr-29 04:33N 47°12' W 001°46'0 0.0
2016-Apr-29 03:33N 47°12' W 001°46'0 0.0
2016-Apr-29 02:33N 47°12' W 001°46'0 0.0
2016-Apr-29 01:33N 47°12' W 001°46'0 0.0
2016-Apr-29 00:33N 47°12' W 001°46'0 0.0
2016-Apr-28 23:33N 47°12' W 001°46'0 0.0
2016-Apr-28 22:33N 47°12' W 001°46'0 0.0
2016-Apr-28 21:33N 47°12' W 001°46'0 0.0
2016-Apr-28 20:33N 47°12' W 001°46'0 0.0
2016-Apr-28 19:33N 47°12' W 001°46'0 0.0
2016-Apr-28 18:33N 47°12' W 001°46'0 0.0
2016-Apr-28 17:33N 47°12' W 001°46'0 0.0
2016-Apr-28 16:33N 47°12' W 001°46'0 0.0
2016-Apr-28 15:33N 47°12' W 001°46'0 0.0
2016-Apr-28 14:33N 47°12' W 001°46'0 0.0
2016-Apr-28 13:33N 47°12' W 001°46'0 0.0
2016-Apr-28 12:33N 47°12' W 001°46'0 0.0
2016-Apr-28 11:33N 47°12' W 001°46'0 0.0
2016-Apr-28 10:33N 47°12' W 001°46'0 0.0
2016-Apr-28 09:33N 47°12' W 001°46'0 0.0
2016-Apr-28 08:33N 47°12' W 001°46'0 0.0
2016-Apr-28 07:33N 47°12' W 001°46'0 0.0
2016-Apr-28 06:33N 47°12' W 001°46'0 0.0
2016-Apr-28 05:33N 47°12' W 001°46'0 0.0
2016-Apr-28 04:33N 47°12' W 001°46'0 0.0
2016-Apr-28 03:33N 47°12' W 001°46'0 0.0
2016-Apr-28 02:33N 47°12' W 001°46'0 0.0
2016-Apr-28 01:33N 47°12' W 001°46'0 0.0
2016-Apr-28 00:33N 47°12' W 001°46'0 0.0
2016-Apr-27 23:33N 47°12' W 001°46'0 0.0
2016-Apr-27 22:33N 47°12' W 001°46'0 0.0
2016-Apr-27 21:33N 47°12' W 001°46'0 0.0
2016-Apr-27 20:33N 47°12' W 001°46'0 0.0
2016-Apr-27 19:33N 47°12' W 001°46'0 0.0
2016-Apr-27 18:33N 47°12' W 001°46'0 0.0
2016-Apr-27 17:33N 47°12' W 001°46'0 0.0
2016-Apr-27 16:33N 47°12' W 001°46'2 2.1
2016-Apr-27 15:33N 47°12' W 001°43'4 3.9
2016-Apr-27 14:33N 47°12' W 001°37'0 0.1
2016-Apr-27 13:33N 47°12' W 001°37'0 0.0
2016-Apr-27 12:33N 47°12' W 001°37'0 0.0
2016-Apr-27 11:33N 47°12' W 001°37'0 0.0
2016-Apr-27 10:33N 47°12' W 001°37'1 0.5
2016-Apr-27 09:33N 47°12' W 001°36'0 0.1
2016-Apr-27 08:33N 47°12' W 001°37'5 4.6
2016-Apr-27 07:33N 47°12' W 001°43'2 1.8
2016-Apr-27 06:33N 47°12' W 001°46'0 0.0
2016-Apr-27 05:33N 47°12' W 001°46'0 0.0
2016-Apr-27 04:33N 47°12' W 001°46'0 0.0
2016-Apr-27 03:33N 47°12' W 001°46'0 0.0
2016-Apr-27 02:33N 47°12' W 001°46'0 0.0
2016-Apr-27 01:33N 47°12' W 001°46'0 0.0
2016-Apr-27 00:33N 47°12' W 001°46'0 0.0
2016-Apr-26 23:33N 47°12' W 001°46'0 0.0
2016-Apr-26 22:33N 47°12' W 001°46'0 0.0
2016-Apr-26 21:33N 47°12' W 001°46'0 0.0
2016-Apr-26 20:33N 47°12' W 001°46'0 0.0
2016-Apr-26 19:33N 47°12' W 001°46'0 0.0
2016-Apr-26 18:33N 47°12' W 001°46'0 0.0
2016-Apr-26 17:33N 47°12' W 001°46'0 0.0
2016-Apr-26 16:33N 47°12' W 001°46'0 0.0
2016-Apr-26 15:33N 47°12' W 001°46'0 0.0
2016-Apr-26 14:33N 47°12' W 001°46'0 0.0
2016-Apr-26 13:33N 47°12' W 001°46'0 0.0
2016-Apr-26 12:33N 47°12' W 001°46'  
Track history (hours):
 
Tides and Currents Weather Stations Pressure Air Temp Water Temp Dewpoint Dewpoint Depression Visibility Wind Speed Wind Dir Waves Ship Positions

Milouin

Last reported at 2016-May-06 12:33 UTC. Time now 2016-May-06 13:01 UTC.
Position N 47°17' W 002°01'.

Length 36 m; draft 2.5 m.

Type: Ship. MMSI: 227003190.

Date/timePositionNaut miles runAvg speedWind from/ knotsBaromVisibWave heightAir tempDewpointWater temp
2016-May-06 12:33N 47°17' W 002°01'0 0.0
2016-May-06 11:33N 47°17' W 002°01'0 0.0
2016-May-06 10:16N 47°17' W 002°01'3 4.6
2016-May-06 09:33N 47°18' W 002°06'1 0.9
2016-May-06 08:33N 47°18' W 002°07'0 0.1
2016-May-06 07:33N 47°18' W 002°07'0 0.1
2016-May-06 06:33N 47°18' W 002°08'0 0.1
2016-May-06 05:33N 47°18' W 002°08'4 3.9
2016-May-06 04:24N 47°17' W 002°01'0 0.0
2016-May-06 02:32N 47°17' W 002°01'0 0.0
2016-May-06 01:33N 47°17' W 002°01'0 0.0
2016-May-06 00:33N 47°17' W 002°01'0 0.0
2016-May-05 23:32N 47°17' W 002°01'0 0.0
2016-May-05 22:33N 47°17' W 002°01'0 0.0
2016-May-05 20:27N 47°17' W 002°01'0 0.0
2016-May-05 11:33N 47°17' W 002°01'0 0.0
2016-May-05 10:33N 47°17' W 002°01'0 0.0
2016-May-05 09:31N 47°17' W 002°01'0 0.0
2016-May-05 08:14N 47°17' W 002°01'0 0.0
2016-May-05 07:26N 47°17' W 002°01'0 0.0
2016-May-05 06:28N 47°17' W 002°01'0 0.0
2016-May-05 03:25N 47°17' W 002°01'0 0.0
2016-May-05 00:33N 47°17' W 002°01'0 0.0
2016-May-04 23:33N 47°17' W 002°01'0 0.0
2016-May-04 22:33N 47°17' W 002°01'0 0.0
2016-May-04 21:30N 47°17' W 002°01'0 0.1
2016-May-04 14:33N 47°18' W 002°01'0 0.1
2016-May-04 11:21N 47°17' W 002°01'0 0.0
2016-May-04 10:20N 47°17' W 002°01'3 4.0
2016-May-04 09:30N 47°18' W 002°06'0 0.5
2016-May-04 08:33N 47°18' W 002°07'4 3.8
2016-May-04 07:33N 47°18' W 002°01'0 0.2
2016-May-04 06:33N 47°18' W 002°01'0 0.3
2016-May-04 05:32N 47°18' W 002°01'0 0.0
2016-May-03 23:33N 47°17' W 002°01'0 0.0
2016-May-03 22:32N 47°17' W 002°01'0 0.0
2016-May-03 21:32N 47°17' W 002°01'0 0.0
2016-May-03 20:33N 47°17' W 002°01'0 0.0
2016-May-03 19:17N 47°17' W 002°01'0 0.0
2016-May-03 18:20N 47°17' W 002°01'0 0.0
2016-May-03 16:14N 47°17' W 002°01'0 0.5
2016-May-03 15:33N 47°18' W 002°01'1 0.5
2016-May-03 14:31N 47°18' W 002°02'1 0.6
2016-May-03 13:24N 47°18' W 002°01'0 0.2
2016-May-03 11:27N 47°17' W 002°01'0 0.0
2016-May-03 10:32N 47°17' W 002°01'0 0.0
2016-May-03 07:32N 47°17' W 002°01'0 0.3
2016-May-03 06:33N 47°18' W 002°01'0 0.3
2016-May-03 05:33N 47°17' W 002°01'0 0.0
2016-May-03 04:33N 47°17' W 002°01'0 0.0
2016-May-03 03:33N 47°17' W 002°01'0 0.0
2016-May-03 02:33N 47°17' W 002°01'0 0.0
2016-May-03 01:33N 47°17' W 002°01'0 0.0
2016-May-03 00:33N 47°17' W 002°01'0 0.0
2016-May-02 23:33N 47°17' W 002°01'0 0.0
2016-May-02 22:33N 47°17' W 002°01'0 0.0
2016-May-02 21:33N 47°17' W 002°01'0 0.0
2016-May-02 20:33N 47°17' W 002°01'0 0.0
2016-May-02 19:33N 47°17' W 002°01'0 0.0
2016-May-02 18:33N 47°17' W 002°01'0 0.0
2016-May-02 17:33N 47°17' W 002°01'0 0.0
2016-May-02 16:33N 47°17' W 002°01'0 0.0
2016-May-02 15:33N 47°17' W 002°01'0 0.4
2016-May-02 14:33N 47°18' W 002°01'0 0.0
2016-May-02 13:33N 47°17' W 002°01'0 0.0
2016-May-02 12:32N 47°18' W 002°01'2 2.0
2016-May-02 11:33N 47°17' W 001°58'7 6.5
2016-May-02 10:33N 47°14' W 001°50'3 2.9
2016-May-02 09:33N 47°12' W 001°46'0 0.0
2016-May-02 08:33N 47°12' W 001°46'0 0.0
2016-May-02 07:33N 47°12' W 001°46'0 0.1
2016-May-02 06:33N 47°12' W 001°46'0 0.1
2016-May-02 05:33N 47°12' W 001°46'0 0.0
2016-May-01 07:31N 47°12' W 001°46'0 0.0
2016-May-01 06:10N 47°12' W 001°46'0 0.0
2016-May-01 05:30N 47°12' W 001°46'0 0.0
2016-May-01 03:32N 47°12' W 001°46'0 0.0
2016-May-01 02:27N 47°12' W 001°46'0 0.0
2016-May-01 01:33N 47°12' W 001°46'0 0.0
2016-May-01 00:33N 47°12' W 001°46'0 0.0
2016-Apr-30 23:33N 47°12' W 001°46'0 0.0
2016-Apr-30 22:33N 47°12' W 001°46'0 0.0
2016-Apr-30 21:33N 47°12' W 001°46'0 0.0
2016-Apr-30 20:33N 47°12' W 001°46'0 0.0
2016-Apr-30 19:33N 47°12' W 001°46'0 0.0
2016-Apr-30 18:33N 47°12' W 001°46'0 0.0
2016-Apr-30 17:33N 47°12' W 001°46'0 0.0
2016-Apr-30 16:33N 47°12' W 001°46'0 0.0
2016-Apr-30 15:33N 47°12' W 001°46'0 0.0
2016-Apr-30 14:33N 47°12' W 001°46'2 2.3
2016-Apr-30 13:33N 47°13' W 001°49'2 1.9
2016-Apr-30 12:33N 47°15' W 001°51'0 0.1
2016-Apr-30 11:33N 47°15' W 001°51'0 0.0
2016-Apr-30 10:33N 47°15' W 001°51'1 0.7
2016-Apr-30 09:33N 47°14' W 001°50'4 3.5
2016-Apr-30 08:33N 47°12' W 001°46'0 0.0
2016-Apr-30 07:33N 47°12' W 001°46'0 0.0
2016-Apr-30 06:33N 47°12' W 001°46'0 0.0
2016-Apr-30 05:33N 47°12' W 001°46'0 0.0
2016-Apr-30 04:33N 47°12' W 001°46'0 0.0
2016-Apr-30 03:33N 47°12' W 001°46'0 0.0
2016-Apr-30 02:33N 47°12' W 001°46'0 0.0
2016-Apr-30 01:33N 47°12' W 001°46'0 0.0
2016-Apr-30 00:33N 47°12' W 001°46'0 0.0
2016-Apr-29 23:33N 47°12' W 001°46'0 0.0
2016-Apr-29 22:33N 47°12' W 001°46'0 0.0
2016-Apr-29 21:33N 47°12' W 001°46'0 0.0
2016-Apr-29 20:33N 47°12' W 001°46'0 0.0
2016-Apr-29 19:33N 47°12' W 001°46'0 0.0
2016-Apr-29 18:33N 47°12' W 001°46'0 0.0
2016-Apr-29 17:33N 47°12' W 001°46'0 0.0
2016-Apr-29 16:33N 47°12' W 001°46'3 3.0
2016-Apr-29 15:33N 47°14' W 001°50'1 1.2
2016-Apr-29 14:33N 47°15' W 001°51'1 0.6
2016-Apr-29 13:33N 47°14' W 001°50'1 0.5
2016-Apr-29 12:33N 47°15' W 001°51'0 0.0
2016-Apr-29 11:33N 47°15' W 001°51'0 0.0
2016-Apr-29 10:33N 47°15' W 001°51'0 0.1
2016-Apr-29 09:33N 47°15' W 001°51'1 0.5
2016-Apr-29 08:33N 47°14' W 001°50'0 0.2
2016-Apr-29 07:33N 47°14' W 001°50'3 3.3
2016-Apr-29 06:33N 47°12' W 001°46'0 0.0
2016-Apr-29 05:33N 47°12' W 001°46'0 0.0
2016-Apr-29 04:33N 47°12' W 001°46'0 0.0
2016-Apr-29 03:33N 47°12' W 001°46'0 0.0
2016-Apr-29 02:33N 47°12' W 001°46'0 0.0
2016-Apr-29 01:33N 47°12' W 001°46'0 0.0
2016-Apr-29 00:33N 47°12' W 001°46'0 0.0
2016-Apr-28 23:33N 47°12' W 001°46'0 0.0
2016-Apr-28 22:33N 47°12' W 001°46'0 0.0
2016-Apr-28 21:33N 47°12' W 001°46'0 0.0
2016-Apr-28 20:33N 47°12' W 001°46'0 0.0
2016-Apr-28 19:33N 47°12' W 001°46'0 0.0
2016-Apr-28 18:33N 47°12' W 001°46'0 0.0
2016-Apr-28 17:33N 47°12' W 001°46'0 0.0
2016-Apr-28 16:33N 47°12' W 001°46'0 0.0
2016-Apr-28 15:33N 47°12' W 001°46'0 0.0
2016-Apr-28 14:33N 47°12' W 001°46'0 0.0
2016-Apr-28 13:33N 47°12' W 001°46'0 0.0
2016-Apr-28 12:33N 47°12' W 001°46'0 0.0
2016-Apr-28 11:33N 47°12' W 001°46'0 0.0
2016-Apr-28 10:33N 47°12' W 001°46'0 0.0
2016-Apr-28 09:33N 47°12' W 001°46'0 0.0
2016-Apr-28 08:33N 47°12' W 001°46'0 0.0
2016-Apr-28 07:33N 47°12' W 001°46'0 0.0
2016-Apr-28 06:33N 47°12' W 001°46'0 0.0
2016-Apr-28 05:33N 47°12' W 001°46'0 0.0
2016-Apr-28 04:33N 47°12' W 001°46'0 0.0
2016-Apr-28 03:33N 47°12' W 001°46'0 0.0
2016-Apr-28 02:33N 47°12' W 001°46'0 0.0
2016-Apr-28 01:33N 47°12' W 001°46'0 0.0
2016-Apr-28 00:33N 47°12' W 001°46'0 0.0
2016-Apr-27 23:33N 47°12' W 001°46'0 0.0
2016-Apr-27 22:33N 47°12' W 001°46'0 0.0
2016-Apr-27 21:33N 47°12' W 001°46'0 0.0
2016-Apr-27 20:33N 47°12' W 001°46'0 0.0
2016-Apr-27 19:33N 47°12' W 001°46'0 0.0
2016-Apr-27 18:33N 47°12' W 001°46'0 0.0
2016-Apr-27 17:33N 47°12' W 001°46'0 0.0
2016-Apr-27 16:33N 47°12' W 001°46'2 2.1
2016-Apr-27 15:33N 47°12' W 001°43'4 3.9
2016-Apr-27 14:33N 47°12' W 001°37'0 0.1
2016-Apr-27 13:33N 47°12' W 001°37'0 0.0
2016-Apr-27 12:33N 47°12' W 001°37'0 0.0
2016-Apr-27 11:33N 47°12' W 001°37'0 0.0
2016-Apr-27 10:33N 47°12' W 001°37'1 0.5
2016-Apr-27 09:33N 47°12' W 001°36'0 0.1
2016-Apr-27 08:33N 47°12' W 001°37'5 4.6
2016-Apr-27 07:33N 47°12' W 001°43'2 1.8
2016-Apr-27 06:33N 47°12' W 001°46'0 0.0
2016-Apr-27 05:33N 47°12' W 001°46'0 0.0
2016-Apr-27 04:33N 47°12' W 001°46'0 0.0
2016-Apr-27 03:33N 47°12' W 001°46'0 0.0
2016-Apr-27 02:33N 47°12' W 001°46'0 0.0
2016-Apr-27 01:33N 47°12' W 001°46'0 0.0
2016-Apr-27 00:33N 47°12' W 001°46'0 0.0
2016-Apr-26 23:33N 47°12' W 001°46'0 0.0
2016-Apr-26 22:33N 47°12' W 001°46'0 0.0
2016-Apr-26 21:33N 47°12' W 001°46'0 0.0
2016-Apr-26 20:33N 47°12' W 001°46'0 0.0
2016-Apr-26 19:33N 47°12' W 001°46'0 0.0
2016-Apr-26 18:33N 47°12' W 001°46'0 0.0
2016-Apr-26 17:33N 47°12' W 001°46'0 0.0
2016-Apr-26 16:33N 47°12' W 001°46'0 0.0
2016-Apr-26 15:33N 47°12' W 001°46'0 0.0
2016-Apr-26 14:33N 47°12' W 001°46'0 0.0
2016-Apr-26 13:33N 47°12' W 001°46'0 0.0
2016-Apr-26 12:33N 47°12' W 001°46'  

Dump ship's entire track history